Ashland, Missouri
Current Conditions -  °F | °C
As of 11:54 PM on Saturday 22 Nov 2014 (Local Time) from KCOU Reporting Station
Clear Clear  
Wind Chill: 11°   Ceiling: Unl
Heat Index: 11°   Visibility: 10mi
Dew Point:   Wind: 14mph
Humidity: 89%   Direction: 150°SSE
Pressure: 29.78"   Gusts: NA
Location:  38.77°N, 92.26°W
Report Text: KCOU 230554Z AUTO 15012KT 10SM CLR 11/09 A2978 RMK AO2 SLP081 T01110094 10133 20111 401560078 58023 $
Loading
Personal Weather Stations






























Interactive Weather Map New forecast layout! Learn more

10-Day Weather Forecast

Advertisements
Track Severe Weather on mobile